createdAt,value
2018-06-23T00:01:25.915Z,12.40
2018-06-23T00:03:54.163Z,12.30
2018-06-23T00:06:22.453Z,12.30
2018-06-23T00:08:50.709Z,12.30
2018-06-23T00:11:19.028Z,12.30
2018-06-23T00:13:47.315Z,12.20
2018-06-23T00:16:15.618Z,12.20
2018-06-23T00:18:43.898Z,12.10
2018-06-23T00:21:12.198Z,12.10
2018-06-23T00:23:40.482Z,12.10
2018-06-23T00:26:14.271Z,12.10
2018-06-23T00:31:10.611Z,12.00
2018-06-23T00:33:38.890Z,12.00
2018-06-23T00:36:07.207Z,12.00
2018-06-23T00:38:35.483Z,11.90
2018-06-23T00:41:03.795Z,11.90
2018-06-23T00:43:32.089Z,11.90
2018-06-23T00:46:00.392Z,11.90
2018-06-23T00:48:28.685Z,11.80
2018-06-23T00:50:57.055Z,11.80
2018-06-23T00:53:25.342Z,11.80
2018-06-23T00:55:53.637Z,11.70
2018-06-23T00:58:22.743Z,11.60
2018-06-23T01:00:51.035Z,11.60
2018-06-23T01:03:19.318Z,11.60
2018-06-23T01:05:47.611Z,11.60
2018-06-23T01:08:15.894Z,11.70
2018-06-23T01:10:44.186Z,11.70
2018-06-23T01:13:12.450Z,11.70
2018-06-23T01:15:41.054Z,11.70
2018-06-23T01:18:09.349Z,11.80
2018-06-23T01:20:37.614Z,11.80
2018-06-23T01:23:05.902Z,11.80
2018-06-23T01:25:34.179Z,11.80
2018-06-23T01:28:02.463Z,11.80
2018-06-23T01:30:30.710Z,11.80
2018-06-23T01:32:58.984Z,11.80
2018-06-23T01:35:27.247Z,11.80
2018-06-23T01:37:55.524Z,11.70
2018-06-23T01:40:23.787Z,11.70
2018-06-23T01:42:52.059Z,11.80
2018-06-23T01:45:20.309Z,11.80
2018-06-23T01:47:48.591Z,11.80
2018-06-23T01:50:16.833Z,11.80
2018-06-23T01:52:45.118Z,11.80
2018-06-23T01:55:13.379Z,11.80
2018-06-23T01:57:41.658Z,11.80
2018-06-23T02:00:09.923Z,11.80
2018-06-23T02:02:38.216Z,11.80
2018-06-23T02:05:06.607Z,11.80
2018-06-23T02:07:34.877Z,11.80
2018-06-23T02:10:03.186Z,11.80
2018-06-23T02:12:31.510Z,11.80
2018-06-23T02:15:05.186Z,11.80
2018-06-23T02:17:38.906Z,11.80
2018-06-23T02:20:12.496Z,11.70
2018-06-23T02:22:46.098Z,11.80
2018-06-23T02:25:19.651Z,11.80
2018-06-23T02:27:53.101Z,11.80
2018-06-23T02:30:27.613Z,11.80
2018-06-23T02:32:55.905Z,11.80
2018-06-23T02:35:24.167Z,11.80
2018-06-23T02:37:52.442Z,11.70
2018-06-23T02:40:20.689Z,11.70
2018-06-23T02:42:49.041Z,11.70
2018-06-23T02:45:17.297Z,11.70
2018-06-23T02:47:45.564Z,11.70
2018-06-23T02:50:13.883Z,11.70
2018-06-23T02:52:42.167Z,11.70
2018-06-23T02:55:10.505Z,11.70
2018-06-23T02:57:38.751Z,11.70
2018-06-23T03:00:07.013Z,11.60
2018-06-23T03:02:35.289Z,11.60
2018-06-23T03:05:03.572Z,11.60
2018-06-23T03:07:31.837Z,11.70
2018-06-23T03:10:00.144Z,11.70
2018-06-23T03:12:28.397Z,11.70
2018-06-23T03:14:56.691Z,11.70
2018-06-23T03:17:24.999Z,11.70
2018-06-23T03:19:53.287Z,11.70
2018-06-23T03:24:49.610Z,11.60
2018-06-23T03:27:17.887Z,11.60
2018-06-23T03:29:46.173Z,11.60
2018-06-23T03:32:14.427Z,11.70
2018-06-23T03:34:42.721Z,11.70
2018-06-23T03:37:10.994Z,11.60
2018-06-23T03:39:39.295Z,11.60
2018-06-23T03:42:07.683Z,11.60
2018-06-23T03:44:36.098Z,11.70
2018-06-23T03:47:04.443Z,11.70
2018-06-23T03:49:32.803Z,11.70
2018-06-23T03:52:01.102Z,11.70
2018-06-23T03:54:29.373Z,11.60
2018-06-23T03:56:57.671Z,11.70
2018-06-23T03:59:25.959Z,11.70
2018-06-23T04:01:54.863Z,11.70
2018-06-23T04:04:23.144Z,11.70
2018-06-23T04:06:51.434Z,11.70
2018-06-23T04:09:19.718Z,11.70
2018-06-23T04:11:48.030Z,11.70
2018-06-23T04:14:16.305Z,11.70
2018-06-23T04:16:44.593Z,11.50
2018-06-23T04:19:12.854Z,11.70
2018-06-23T04:21:41.156Z,11.60
2018-06-23T04:24:09.431Z,11.70
2018-06-23T04:26:37.704Z,11.60
2018-06-23T04:29:06.216Z,11.60
2018-06-23T04:31:34.477Z,11.70
2018-06-23T04:34:02.745Z,11.70
2018-06-23T04:36:31.059Z,11.70
2018-06-23T04:38:59.355Z,11.70
2018-06-23T04:41:27.654Z,11.70
2018-06-23T04:43:55.935Z,11.70
2018-06-23T04:46:24.215Z,11.80
2018-06-23T04:48:52.495Z,11.80
2018-06-23T04:51:20.783Z,11.90
2018-06-23T04:53:49.671Z,11.90
2018-06-23T04:56:18.030Z,11.90
2018-06-23T04:58:46.303Z,11.80
2018-06-23T05:01:14.592Z,11.90
2018-06-23T05:03:42.857Z,11.90
2018-06-23T05:06:11.161Z,11.90
2018-06-23T05:08:39.708Z,12.00
2018-06-23T05:11:08.596Z,12.00
2018-06-23T05:13:36.897Z,11.90
2018-06-23T05:16:05.599Z,11.90
2018-06-23T05:18:33.941Z,11.90
2018-06-23T05:21:02.214Z,11.90
2018-06-23T05:23:30.481Z,11.90
2018-06-23T05:25:58.804Z,11.90
2018-06-23T05:28:27.058Z,11.80
2018-06-23T05:30:55.326Z,11.90
2018-06-23T05:33:23.910Z,11.80
2018-06-23T05:35:52.647Z,11.80
2018-06-23T05:38:20.926Z,11.80
2018-06-23T05:40:49.199Z,11.80
2018-06-23T05:43:17.491Z,11.90
2018-06-23T05:45:45.761Z,11.80
2018-06-23T05:48:14.059Z,11.80
2018-06-23T05:50:42.434Z,11.90
2018-06-23T05:53:10.723Z,11.80
2018-06-23T05:55:38.994Z,11.90
2018-06-23T05:58:07.386Z,11.80
2018-06-23T06:00:35.950Z,11.80
2018-06-23T06:03:04.223Z,11.80
2018-06-23T06:05:32.495Z,11.70
2018-06-23T06:08:00.773Z,11.70
2018-06-23T06:10:29.068Z,11.70
2018-06-23T06:12:57.366Z,10.40
2018-06-23T06:15:25.708Z,11.70
2018-06-23T06:17:53.994Z,11.70
2018-06-23T06:20:22.267Z,11.70
2018-06-23T06:22:50.552Z,11.90
2018-06-23T06:25:19.785Z,12.10
2018-06-23T06:27:48.222Z,12.10
2018-06-23T06:30:16.479Z,12.10
2018-06-23T06:32:44.761Z,12.10
2018-06-23T06:35:13.058Z,12.10
2018-06-23T06:37:41.316Z,12.10
2018-06-23T06:40:09.625Z,12.40
2018-06-23T06:42:37.897Z,12.60
2018-06-23T06:45:06.458Z,12.80
2018-06-23T06:47:34.734Z,12.90
2018-06-23T06:50:03.049Z,13.00
2018-06-23T06:52:31.327Z,13.20
2018-06-23T06:54:59.669Z,13.60
2018-06-23T06:57:27.945Z,14.00
2018-06-23T06:59:56.210Z,14.50
2018-06-23T07:02:24.485Z,15.00
2018-06-23T07:04:52.770Z,14.90
2018-06-23T07:07:21.042Z,14.60
2018-06-23T07:09:49.332Z,14.50
2018-06-23T07:12:17.649Z,14.30
2018-06-23T07:14:45.939Z,14.20
2018-06-23T07:17:14.207Z,14.40
2018-06-23T07:19:42.563Z,14.90
2018-06-23T07:22:11.075Z,15.80
2018-06-23T07:24:39.367Z,16.10
2018-06-23T07:27:07.767Z,16.40
2018-06-23T07:29:36.057Z,16.10
2018-06-23T07:32:04.453Z,15.40
2018-06-23T07:34:32.921Z,15.00
2018-06-23T07:37:01.003Z,14.70
2018-06-23T07:39:29.276Z,14.60
2018-06-23T07:41:57.522Z,14.40
2018-06-23T07:44:25.807Z,14.40
2018-06-23T07:46:54.471Z,14.50
2018-06-23T07:49:22.780Z,14.50
2018-06-23T07:51:51.063Z,14.50
2018-06-23T07:54:19.355Z,14.50
2018-06-23T07:56:47.639Z,14.50
2018-06-23T07:59:15.888Z,14.50
2018-06-23T08:01:44.270Z,14.90
2018-06-23T08:04:12.451Z,15.30
2018-06-23T08:06:40.732Z,15.50
2018-06-23T08:09:09.507Z,15.50
2018-06-23T08:11:37.846Z,15.50
2018-06-23T08:14:06.115Z,15.60
2018-06-23T08:16:34.494Z,15.60
2018-06-23T08:19:02.743Z,15.70
2018-06-23T08:21:31.026Z,15.90
2018-06-23T08:23:59.295Z,16.10
2018-06-23T08:26:27.597Z,16.10
2018-06-23T08:28:55.839Z,16.20
2018-06-23T08:31:24.102Z,16.10
2018-06-23T08:33:52.372Z,16.10
2018-06-23T08:36:20.659Z,16.00
2018-06-23T08:38:48.919Z,16.10
2018-06-23T08:41:17.269Z,16.20
2018-06-23T08:43:45.587Z,16.30
2018-06-23T08:46:13.839Z,16.40
2018-06-23T08:48:42.105Z,16.80
2018-06-23T08:51:10.380Z,17.00
2018-06-23T08:53:38.640Z,17.20
2018-06-23T08:56:06.966Z,17.90
2018-06-23T08:58:35.406Z,18.10
2018-06-23T09:01:03.737Z,17.70
2018-06-23T09:03:31.997Z,17.30
2018-06-23T09:06:00.277Z,17.30
2018-06-23T09:08:28.531Z,17.50
2018-06-23T09:10:56.827Z,17.70
2018-06-23T09:13:25.132Z,17.90
2018-06-23T09:15:53.919Z,17.90
2018-06-23T10:22:36.103Z,19.70
2018-06-23T10:25:04.397Z,19.70
2018-06-23T10:27:32.664Z,19.50
2018-06-23T10:30:00.965Z,19.00
2018-06-23T10:32:29.320Z,18.50
2018-06-23T10:34:57.632Z,18.00
2018-06-23T10:37:25.942Z,17.50
2018-06-23T10:39:54.303Z,17.20
2018-06-23T10:42:22.574Z,17.00
2018-06-23T10:47:18.875Z,17.40
2018-06-23T10:49:47.167Z,18.10
2018-06-23T10:52:15.429Z,18.80
2018-06-23T10:54:43.746Z,19.20
2018-06-23T10:57:12.020Z,19.30
2018-06-23T10:59:40.306Z,19.20
2018-06-23T11:02:08.687Z,18.90
2018-06-23T11:04:36.991Z,18.50
2018-06-23T11:07:05.518Z,18.30
2018-06-23T11:09:33.835Z,19.10
2018-06-23T11:12:02.102Z,19.90
2018-06-23T11:14:30.403Z,20.70
2018-06-23T11:16:58.682Z,21.50
2018-06-23T11:19:26.975Z,21.20
2018-06-23T11:21:55.240Z,20.40
2018-06-23T11:24:24.369Z,19.50
2018-06-23T11:26:52.621Z,18.60
2018-06-23T11:29:20.902Z,17.90
2018-06-23T11:31:49.156Z,17.60
2018-06-23T11:34:17.487Z,17.50
2018-06-23T11:36:45.779Z,17.70
2018-06-23T11:39:14.037Z,18.30
2018-06-23T11:41:42.547Z,19.40
2018-06-23T11:44:10.815Z,20.30
2018-06-23T11:46:39.167Z,20.60
2018-06-23T11:49:07.411Z,20.60
2018-06-23T11:51:35.681Z,19.30
2018-06-23T11:54:03.947Z,18.90
2018-06-23T11:56:32.247Z,18.70
2018-06-23T11:59:00.527Z,19.20
2018-06-23T12:01:28.809Z,19.80
2018-06-23T12:03:57.228Z,20.80
2018-06-23T12:08:54.807Z,21.40
2018-06-23T12:11:23.667Z,20.40
2018-06-23T12:13:51.931Z,19.70
2018-06-23T12:16:20.260Z,19.40
2018-06-23T12:18:48.480Z,19.60
2018-06-23T12:21:16.772Z,19.00
2018-06-23T12:23:45.015Z,19.40
2018-06-23T12:26:13.400Z,19.70
2018-06-23T12:28:41.668Z,19.20
2018-06-23T12:31:09.960Z,18.70
2018-06-23T12:33:38.217Z,18.70
2018-06-23T12:36:06.490Z,19.50
2018-06-23T12:38:34.768Z,20.10
2018-06-23T12:41:03.085Z,20.30
2018-06-23T12:43:31.344Z,19.80
2018-06-23T12:45:59.617Z,19.20
2018-06-23T12:48:28.094Z,18.60
2018-06-23T12:50:56.327Z,18.10
2018-06-23T12:53:24.582Z,18.00
2018-06-23T12:55:52.862Z,18.10
2018-06-23T12:58:21.118Z,18.20
2018-06-23T13:03:17.503Z,18.60
2018-06-23T13:05:45.759Z,19.10
2018-06-23T13:08:14.054Z,19.70
2018-06-23T13:10:42.646Z,20.20
2018-06-23T13:13:10.933Z,20.40
2018-06-23T13:15:39.191Z,20.50
2018-06-23T13:18:08.257Z,20.10
2018-06-23T13:23:04.567Z,20.30
2018-06-23T13:25:33.018Z,20.30
2018-06-23T13:30:29.322Z,20.30
2018-06-23T13:32:57.600Z,19.40
2018-06-23T13:35:25.875Z,19.50
2018-06-23T13:37:54.146Z,19.30
2018-06-23T13:40:22.641Z,19.40
2018-06-23T13:42:50.915Z,19.60
2018-06-23T13:45:19.193Z,19.70
2018-06-23T13:47:47.470Z,20.20
2018-06-23T13:50:15.729Z,19.90
2018-06-23T13:52:44.036Z,19.20
2018-06-23T13:55:12.273Z,19.40
2018-06-23T14:00:09.335Z,19.70
2018-06-23T14:02:37.647Z,19.10
2018-06-23T14:07:34.002Z,18.20
2018-06-23T14:10:02.272Z,18.70
2018-06-23T14:12:30.530Z,18.70
2018-06-23T14:14:58.799Z,18.40
2018-06-23T14:17:27.059Z,18.20
2018-06-23T14:19:55.333Z,18.00
2018-06-23T14:22:23.586Z,18.20
2018-06-23T14:24:51.927Z,18.50
2018-06-23T14:27:20.180Z,18.40
2018-06-23T14:29:48.470Z,18.40
2018-06-23T14:32:16.851Z,18.20
2018-06-23T14:34:45.030Z,18.30
2018-06-23T14:37:13.284Z,18.30
2018-06-23T14:39:41.568Z,18.20
2018-06-23T14:42:09.827Z,18.10
2018-06-23T14:44:38.114Z,18.00
2018-06-23T14:47:06.464Z,17.80
2018-06-23T14:49:34.798Z,17.60
2018-06-23T14:52:03.119Z,17.40
2018-06-23T14:54:31.407Z,17.20
2018-06-23T14:57:00.628Z,17.10
2018-06-23T14:59:28.918Z,17.00
2018-06-23T15:01:57.210Z,17.10
2018-06-23T15:04:25.482Z,17.30
2018-06-23T15:06:53.734Z,17.50
2018-06-23T15:09:33.520Z,17.40
2018-06-23T15:12:13.086Z,17.40
2018-06-23T15:14:41.364Z,17.30
2018-06-23T15:17:09.644Z,17.20
2018-06-23T15:19:37.933Z,17.10
2018-06-23T15:22:06.278Z,17.00
2018-06-23T15:24:34.601Z,16.90
2018-06-23T15:27:02.862Z,16.80
2018-06-23T15:29:31.128Z,16.70
2018-06-23T15:31:59.408Z,16.50
2018-06-23T15:34:27.686Z,16.30
2018-06-23T15:36:55.974Z,16.10
2018-06-23T15:39:24.303Z,16.00
2018-06-23T15:41:52.731Z,15.90
2018-06-23T15:44:21.019Z,15.80
2018-06-23T15:46:49.297Z,15.70
2018-06-23T15:49:17.548Z,15.70
2018-06-23T15:51:45.837Z,15.60
2018-06-23T15:54:14.181Z,15.60
2018-06-23T15:56:42.466Z,15.60
2018-06-23T15:59:10.775Z,15.60
2018-06-23T16:01:39.129Z,15.70
2018-06-23T16:04:07.396Z,15.80
2018-06-23T16:06:35.716Z,15.80
2018-06-23T16:09:06.179Z,15.80
2018-06-23T16:11:34.467Z,15.80
2018-06-23T16:14:02.739Z,15.80
2018-06-23T16:16:31.027Z,15.80
2018-06-23T16:18:59.294Z,15.80
2018-06-23T16:21:27.686Z,15.90
2018-06-23T16:23:55.959Z,15.90
2018-06-23T16:26:24.257Z,16.00
2018-06-23T16:28:52.542Z,16.10
2018-06-23T16:31:20.835Z,16.10
2018-06-23T16:33:49.659Z,16.20
2018-06-23T16:36:18.321Z,16.20
2018-06-23T16:38:46.855Z,16.30
2018-06-23T16:41:15.796Z,16.30
2018-06-23T16:43:44.111Z,16.20
2018-06-23T16:46:12.395Z,16.20
2018-06-23T16:48:40.660Z,16.10
2018-06-23T16:51:08.939Z,16.20
2018-06-23T16:53:37.212Z,16.20
2018-06-23T16:56:05.751Z,16.20
2018-06-23T16:58:34.027Z,16.30
2018-06-23T17:01:02.322Z,16.30
2018-06-23T17:03:30.654Z,16.30
2018-06-23T17:05:58.967Z,16.30
2018-06-23T17:10:55.311Z,16.30
2018-06-23T17:13:23.591Z,16.20
2018-06-23T17:15:51.837Z,16.10
2018-06-23T17:18:20.159Z,16.00
2018-06-23T17:20:48.444Z,15.90
2018-06-23T17:23:16.786Z,15.90
2018-06-23T17:25:45.027Z,15.90
2018-06-23T17:28:13.301Z,15.80
2018-06-23T17:30:41.611Z,15.80
2018-06-23T17:33:09.862Z,15.80
2018-06-23T17:35:38.134Z,15.70
2018-06-23T17:38:06.429Z,15.70
2018-06-23T17:40:34.694Z,15.80
2018-06-23T17:45:31.063Z,15.90
2018-06-23T17:47:59.362Z,15.90
2018-06-23T17:50:27.622Z,15.90
2018-06-23T17:52:55.962Z,15.80
2018-06-23T17:55:24.227Z,15.60
2018-06-23T17:57:52.661Z,15.40
2018-06-23T18:00:20.863Z,15.20
2018-06-23T18:02:49.154Z,15.20
2018-06-23T18:05:17.427Z,15.20
2018-06-23T18:07:45.711Z,15.20
2018-06-23T18:10:14.002Z,15.20
2018-06-23T18:12:42.283Z,15.30
2018-06-23T18:15:10.545Z,15.30
2018-06-23T18:20:06.854Z,15.30
2018-06-23T18:22:35.403Z,15.30
2018-06-23T18:25:03.705Z,15.30
2018-06-23T18:27:31.961Z,15.30
2018-06-23T18:30:00.307Z,15.30
2018-06-23T18:32:28.559Z,15.30
2018-06-23T18:34:56.855Z,15.30
2018-06-23T18:37:25.173Z,15.20
2018-06-23T18:39:53.520Z,15.20
2018-06-23T18:42:21.777Z,15.20
2018-06-23T18:44:50.042Z,15.10
2018-06-23T18:47:18.306Z,15.00
2018-06-23T18:49:46.633Z,15.00
2018-06-23T18:52:14.981Z,15.00
2018-06-23T18:54:43.281Z,14.90
2018-06-23T18:57:11.530Z,14.90
2018-06-23T18:59:39.810Z,14.90
2018-06-23T19:02:08.066Z,14.90
2018-06-23T19:04:36.337Z,14.80
2018-06-23T19:07:04.620Z,14.80
2018-06-23T19:09:33.090Z,14.80
2018-06-23T19:12:01.378Z,14.70
2018-06-23T19:14:29.719Z,14.70
2018-06-23T19:16:57.981Z,14.60
2018-06-23T19:19:26.270Z,14.60
2018-06-23T19:21:54.518Z,14.60
2018-06-23T19:24:22.802Z,14.50
2018-06-23T19:26:51.066Z,14.50
2018-06-23T19:29:19.340Z,14.50
2018-06-23T19:31:47.603Z,14.50
2018-06-23T19:34:15.882Z,14.40
2018-06-23T19:36:44.207Z,14.20
2018-06-23T19:39:12.459Z,14.10
2018-06-23T19:41:40.771Z,13.90
2018-06-23T19:44:09.134Z,13.80
2018-06-23T19:46:37.318Z,13.70
2018-06-23T19:49:05.603Z,13.50
2018-06-23T19:51:33.873Z,13.50
2018-06-23T19:54:02.122Z,13.40
2018-06-23T19:56:30.405Z,13.30
2018-06-23T19:58:58.680Z,13.20
2018-06-23T20:01:26.960Z,13.20
2018-06-23T20:03:55.233Z,13.10
2018-06-23T20:06:23.511Z,13.10
2018-06-23T20:08:51.795Z,13.10
2018-06-23T20:11:20.108Z,13.00
2018-06-23T20:13:48.378Z,13.10
2018-06-23T20:16:16.667Z,13.00
2018-06-23T20:18:44.934Z,13.00
2018-06-23T20:21:13.227Z,13.00
2018-06-23T20:23:41.563Z,13.00
2018-06-23T20:26:09.850Z,13.00
2018-06-23T20:28:38.127Z,13.00
2018-06-23T20:31:06.186Z,13.00
2018-06-23T20:33:34.459Z,13.00
2018-06-23T20:36:02.758Z,13.00
2018-06-23T20:38:31.126Z,13.00
2018-06-23T20:40:59.408Z,13.00
2018-06-23T20:43:27.742Z,13.00
2018-06-23T20:46:01.166Z,13.10
2018-06-23T20:48:29.432Z,13.00
2018-06-23T20:50:57.730Z,13.00
2018-06-23T20:53:26.057Z,12.90
2018-06-23T20:55:54.351Z,12.90
2018-06-23T20:58:22.715Z,12.80
2018-06-23T21:00:51.033Z,12.80
2018-06-23T21:03:19.362Z,12.80
2018-06-23T21:05:47.677Z,12.70
2018-06-23T21:08:15.975Z,12.70
2018-06-23T21:10:45.631Z,12.70
2018-06-23T21:13:13.979Z,12.70
2018-06-23T21:15:42.251Z,12.70
2018-06-23T21:18:10.946Z,12.70
2018-06-23T21:20:39.232Z,12.70
2018-06-23T21:23:07.545Z,12.70
2018-06-23T21:25:35.834Z,12.70
2018-06-23T21:28:04.193Z,12.70
2018-06-23T21:30:32.532Z,12.70
2018-06-23T21:33:00.835Z,12.60
2018-06-23T21:35:29.108Z,12.60
2018-06-23T21:37:57.504Z,12.70
2018-06-23T21:40:25.759Z,12.70
2018-06-23T21:42:54.057Z,12.70
2018-06-23T21:45:22.322Z,12.70
2018-06-23T21:47:59.014Z,12.70
2018-06-23T21:50:27.340Z,12.60
2018-06-23T21:52:55.625Z,12.60
2018-06-23T21:55:23.889Z,12.60
2018-06-23T21:57:52.184Z,12.50
2018-06-23T22:00:31.318Z,12.50
2018-06-23T22:03:00.343Z,12.50
2018-06-23T22:05:32.031Z,12.50
2018-06-23T22:08:00.834Z,12.50
2018-06-23T22:10:29.495Z,12.50
2018-06-23T22:12:57.767Z,12.50
2018-06-23T22:15:26.020Z,12.40
2018-06-23T22:17:54.295Z,12.50
2018-06-23T22:20:22.544Z,12.40
2018-06-23T22:22:51.667Z,12.50
2018-06-23T22:25:20.023Z,12.40
2018-06-23T22:27:48.267Z,12.40
2018-06-23T22:30:16.586Z,12.40
2018-06-23T22:32:44.834Z,12.40
2018-06-23T22:35:13.115Z,12.40
2018-06-23T22:37:41.370Z,12.40
2018-06-23T22:40:10.098Z,12.40
2018-06-23T22:42:38.368Z,12.30
2018-06-23T22:45:06.950Z,12.30
2018-06-23T22:47:35.212Z,12.30
2018-06-23T22:50:03.538Z,12.30
2018-06-23T22:52:31.792Z,12.30
2018-06-23T22:55:00.051Z,12.30
2018-06-23T22:57:28.339Z,12.30
2018-06-23T22:59:56.603Z,12.40
2018-06-23T23:02:24.853Z,12.40
2018-06-23T23:04:53.122Z,12.40
2018-06-23T23:07:21.451Z,12.40
2018-06-23T23:09:49.738Z,12.40
2018-06-23T23:12:18.014Z,12.40
2018-06-23T23:14:46.277Z,12.40
2018-06-23T23:17:14.518Z,12.40
2018-06-23T23:19:42.787Z,12.50
2018-06-23T23:22:11.038Z,12.40
2018-06-23T23:24:39.343Z,12.40
2018-06-23T23:27:07.603Z,12.40
2018-06-23T23:29:35.907Z,12.40
2018-06-23T23:32:04.133Z,12.40
2018-06-23T23:34:32.436Z,12.50
2018-06-23T23:37:00.685Z,12.50
2018-06-23T23:39:28.959Z,12.50
2018-06-23T23:41:57.231Z,13.20
2018-06-23T23:44:25.576Z,12.50
2018-06-23T23:46:53.855Z,12.50
2018-06-23T23:49:22.118Z,12.50
2018-06-23T23:51:50.411Z,12.50
2018-06-23T23:54:18.662Z,12.50
2018-06-23T23:56:46.949Z,12.50
2018-06-23T23:59:15.216Z,12.50
